Yahata Maru — JL6477 — position and weather

sailwx.info

Track history (hours):
 
Tides and Currents Weather Stations Pressure Air Temp Water Temp Dewpoint Dewpoint Depression Visibility Wind Speed Wind Dir Waves Ship Positions

Yahata Maru

Last reported at 2015-Jul-05 14:05 UTC. Time now 2015-Jul-05 19:19 UTC.
Position N 34°35' E 134°51'.

Length 149 m; draft 4.7 m.

Type: Other ship. MMSI: 431400594.

Date/timePositionNaut miles runAvg speedWind from/ knotsBaromVisibWave heightAir tempDewpointWater temp
2015-Jul-05 14:05N 34°35' E 134°51'713.2
2015-Jul-05 13:33N 34°38' E 134°59'1010.3
2015-Jul-05 12:33N 34°36' E 135°11'9 8.6
2015-Jul-05 11:33N 34°42' E 135°19'2 1.0
2015-Jul-05 09:30N 34°43' E 135°21'0 0.0
2015-Jul-05 08:30N 34°43' E 135°21'0 0.0
2015-Jul-05 07:30N 34°43' E 135°21'0 0.0
2015-Jul-05 06:30N 34°43' E 135°21'0 0.0
2015-Jul-05 05:30N 34°43' E 135°21'2 1.8
2015-Jul-05 04:33N 34°42' E 135°21'5 5.0
2015-Jul-05 03:32N 34°36' E 135°21'4 3.6
2015-Jul-05 02:29N 34°35' E 135°26'0 0.0
2015-Jul-05 01:29N 34°35' E 135°26'3 3.3
2015-Jul-05 00:33N 34°36' E 135°22'9 9.5
2015-Jul-04 23:34N 34°30' E 135°14'10 9.8
2015-Jul-04 22:29N 34°23' E 135°05'8 8.8
2015-Jul-04 21:33N 34°16' E 134°60'9 9.3
2015-Jul-04 20:33N 34°06' E 135°00'  
2015-Jul-02 09:32N 34°34' E 138°37'49 7.9
2015-Jul-02 03:20N 35°01' E 139°28'6 7.9
2015-Jul-02 02:33N 35°03' E 139°34'8 8.0
2015-Jul-02 01:33N 35°08' E 139°42'9 8.5
2015-Jul-02 00:33N 35°16' E 139°46'10 9.9
2015-Jul-01 23:33N 35°26' E 139°43'2 1.9
2015-Jul-01 22:21N 35°28' E 139°43'0 0.0
2015-Jul-01 20:33N 35°28' E 139°43'0 0.0
2015-Jul-01 19:33N 35°28' E 139°43'0 0.0
2015-Jul-01 18:33N 35°28' E 139°43'1 0.2
2015-Jul-01 15:33N 35°27' E 139°43'7 7.2
2015-Jul-01 14:34N 35°30' E 139°51'6 6.2
2015-Jul-01 13:33N 35°35' E 139°55'0 0.1
2015-Jul-01 12:34N 35°35' E 139°56'0 0.1
2015-Jul-01 11:33N 35°35' E 139°56'0 0.1
2015-Jul-01 10:33N 35°35' E 139°56'0 0.1
2015-Jul-01 09:33N 35°35' E 139°56'0 0.1
2015-Jul-01 08:33N 35°35' E 139°56'0 0.0
2015-Jul-01 07:33N 35°35' E 139°56'0 0.0
2015-Jul-01 06:33N 35°35' E 139°56'0 0.0
2015-Jul-01 05:33N 35°35' E 139°56'0 0.1
2015-Jul-01 04:33N 35°35' E 139°56'0 0.0
2015-Jul-01 03:32N 35°35' E 139°56'0 0.1
2015-Jul-01 02:33N 35°35' E 139°56'0 0.1
2015-Jul-01 01:33N 35°35' E 139°55'0 0.1
2015-Jul-01 00:33N 35°35' E 139°55'0 0.2
2015-Jun-30 23:33N 35°35' E 139°55'9 9.1
2015-Jun-30 22:34N 35°27' E 139°49'5 5.1
2015-Jun-30 21:32N 35°24' E 139°44'0 0.0
2015-Jun-30 20:32N 35°24' E 139°44'0 0.1
2015-Jun-30 19:32N 35°24' E 139°44'0 0.0
2015-Jun-30 18:32N 35°24' E 139°44'0 0.0
2015-Jun-30 17:32N 35°24' E 139°44'0 0.0
2015-Jun-30 16:32N 35°24' E 139°44'0 0.0
2015-Jun-30 15:32N 35°24' E 139°44'0 0.0
2015-Jun-30 14:32N 35°24' E 139°44'0 0.0
2015-Jun-30 13:32N 35°24' E 139°44'0 0.0
2015-Jun-30 12:32N 35°24' E 139°44'0 0.0
2015-Jun-30 11:32N 35°24' E 139°44'0 0.0
2015-Jun-30 10:32N 35°24' E 139°44'0 0.0
2015-Jun-30 09:32N 35°24' E 139°44'0 0.0
2015-Jun-30 08:32N 35°24' E 139°44'0 0.0
2015-Jun-30 07:32N 35°24' E 139°44'0 0.0
2015-Jun-30 06:32N 35°24' E 139°44'0 0.0
2015-Jun-30 05:32N 35°24' E 139°44'0 0.0
2015-Jun-30 04:26N 35°24' E 139°44'0 0.1
2015-Jun-30 03:33N 35°24' E 139°44'4 4.3
2015-Jun-30 02:33N 35°28' E 139°43'0 0.0
2015-Jun-30 01:33N 35°28' E 139°43'0 0.0
2015-Jun-30 00:33N 35°28' E 139°43'1 0.7
2015-Jun-29 23:33N 35°27' E 139°43'5 4.7
2015-Jun-29 22:33N 35°28' E 139°48'8 8.1
2015-Jun-29 21:33N 35°32' E 139°57'8 7.6
2015-Jun-29 20:33N 35°33' E 140°06'0 0.5
2015-Jun-29 19:32N 35°33' E 140°07'0 0.0
2015-Jun-29 18:32N 35°33' E 140°07'0 0.0
2015-Jun-29 17:29N 35°33' E 140°07'0 0.0
2015-Jun-29 16:32N 35°33' E 140°07'0 0.0
2015-Jun-29 15:32N 35°33' E 140°07'0 0.0
2015-Jun-29 14:32N 35°33' E 140°07'0 0.0
2015-Jun-29 13:29N 35°33' E 140°07'0 0.0
2015-Jun-29 12:29N 35°33' E 140°07'3 3.2
2015-Jun-29 11:33N 35°34' E 140°03'8 7.6
2015-Jun-29 10:33N 35°30' E 139°55'10 9.7
2015-Jun-29 09:33N 35°25' E 139°45'6 5.3
2015-Jun-29 08:31N 35°23' E 139°38'0 0.0
2015-Jun-29 07:31N 35°23' E 139°38'0 0.0
2015-Jun-29 06:31N 35°23' E 139°38'4 3.8
2015-Jun-29 05:33N 35°24' E 139°43'1 0.5
2015-Jun-29 04:28N 35°23' E 139°44'0 0.0
2015-Jun-29 03:31N 35°23' E 139°44'0 0.1
2015-Jun-29 02:31N 35°23' E 139°44'0 0.0
2015-Jun-29 01:31N 35°23' E 139°44'0 0.1
2015-Jun-29 00:31N 35°23' E 139°44'0 0.0
2015-Jun-28 23:31N 35°23' E 139°44'2 1.8
2015-Jun-28 22:33N 35°22' E 139°43'8 8.4
2015-Jun-28 21:33N 35°14' E 139°47'9 9.0
2015-Jun-28 20:33N 35°06' E 139°42'  
Track history (hours):
 
Tides and Currents Weather Stations Pressure Air Temp Water Temp Dewpoint Dewpoint Depression Visibility Wind Speed Wind Dir Waves Ship Positions

Yahata Maru

Last reported at 2015-Jul-05 14:05 UTC. Time now 2015-Jul-05 19:19 UTC.
Position N 34°35' E 134°51'.

Length 149 m; draft 4.7 m.

Type: Other ship. MMSI: 431400594.

Date/timePositionNaut miles runAvg speedWind from/ knotsBaromVisibWave heightAir tempDewpointWater temp
2015-Jul-05 14:05N 34°35' E 134°51'713.2
2015-Jul-05 13:33N 34°38' E 134°59'1010.3
2015-Jul-05 12:33N 34°36' E 135°11'9 8.6
2015-Jul-05 11:33N 34°42' E 135°19'2 1.0
2015-Jul-05 09:30N 34°43' E 135°21'0 0.0
2015-Jul-05 08:30N 34°43' E 135°21'0 0.0
2015-Jul-05 07:30N 34°43' E 135°21'0 0.0
2015-Jul-05 06:30N 34°43' E 135°21'0 0.0
2015-Jul-05 05:30N 34°43' E 135°21'2 1.8
2015-Jul-05 04:33N 34°42' E 135°21'5 5.0
2015-Jul-05 03:32N 34°36' E 135°21'4 3.6
2015-Jul-05 02:29N 34°35' E 135°26'0 0.0
2015-Jul-05 01:29N 34°35' E 135°26'3 3.3
2015-Jul-05 00:33N 34°36' E 135°22'9 9.5
2015-Jul-04 23:34N 34°30' E 135°14'10 9.8
2015-Jul-04 22:29N 34°23' E 135°05'8 8.8
2015-Jul-04 21:33N 34°16' E 134°60'9 9.3
2015-Jul-04 20:33N 34°06' E 135°00'  
2015-Jul-02 09:32N 34°34' E 138°37'49 7.9
2015-Jul-02 03:20N 35°01' E 139°28'6 7.9
2015-Jul-02 02:33N 35°03' E 139°34'8 8.0
2015-Jul-02 01:33N 35°08' E 139°42'9 8.5
2015-Jul-02 00:33N 35°16' E 139°46'10 9.9
2015-Jul-01 23:33N 35°26' E 139°43'2 1.9
2015-Jul-01 22:21N 35°28' E 139°43'0 0.0
2015-Jul-01 20:33N 35°28' E 139°43'0 0.0
2015-Jul-01 19:33N 35°28' E 139°43'0 0.0
2015-Jul-01 18:33N 35°28' E 139°43'1 0.2
2015-Jul-01 15:33N 35°27' E 139°43'7 7.2
2015-Jul-01 14:34N 35°30' E 139°51'6 6.2
2015-Jul-01 13:33N 35°35' E 139°55'0 0.1
2015-Jul-01 12:34N 35°35' E 139°56'0 0.1
2015-Jul-01 11:33N 35°35' E 139°56'0 0.1
2015-Jul-01 10:33N 35°35' E 139°56'0 0.1
2015-Jul-01 09:33N 35°35' E 139°56'0 0.1
2015-Jul-01 08:33N 35°35' E 139°56'0 0.0
2015-Jul-01 07:33N 35°35' E 139°56'0 0.0
2015-Jul-01 06:33N 35°35' E 139°56'0 0.0
2015-Jul-01 05:33N 35°35' E 139°56'0 0.1
2015-Jul-01 04:33N 35°35' E 139°56'0 0.0
2015-Jul-01 03:32N 35°35' E 139°56'0 0.1
2015-Jul-01 02:33N 35°35' E 139°56'0 0.1
2015-Jul-01 01:33N 35°35' E 139°55'0 0.1
2015-Jul-01 00:33N 35°35' E 139°55'0 0.2
2015-Jun-30 23:33N 35°35' E 139°55'9 9.1
2015-Jun-30 22:34N 35°27' E 139°49'5 5.1
2015-Jun-30 21:32N 35°24' E 139°44'0 0.0
2015-Jun-30 20:32N 35°24' E 139°44'0 0.1
2015-Jun-30 19:32N 35°24' E 139°44'0 0.0
2015-Jun-30 18:32N 35°24' E 139°44'0 0.0
2015-Jun-30 17:32N 35°24' E 139°44'0 0.0
2015-Jun-30 16:32N 35°24' E 139°44'0 0.0
2015-Jun-30 15:32N 35°24' E 139°44'0 0.0
2015-Jun-30 14:32N 35°24' E 139°44'0 0.0
2015-Jun-30 13:32N 35°24' E 139°44'0 0.0
2015-Jun-30 12:32N 35°24' E 139°44'0 0.0
2015-Jun-30 11:32N 35°24' E 139°44'0 0.0
2015-Jun-30 10:32N 35°24' E 139°44'0 0.0
2015-Jun-30 09:32N 35°24' E 139°44'0 0.0
2015-Jun-30 08:32N 35°24' E 139°44'0 0.0
2015-Jun-30 07:32N 35°24' E 139°44'0 0.0
2015-Jun-30 06:32N 35°24' E 139°44'0 0.0
2015-Jun-30 05:32N 35°24' E 139°44'0 0.0
2015-Jun-30 04:26N 35°24' E 139°44'0 0.1
2015-Jun-30 03:33N 35°24' E 139°44'4 4.3
2015-Jun-30 02:33N 35°28' E 139°43'0 0.0
2015-Jun-30 01:33N 35°28' E 139°43'0 0.0
2015-Jun-30 00:33N 35°28' E 139°43'1 0.7
2015-Jun-29 23:33N 35°27' E 139°43'5 4.7
2015-Jun-29 22:33N 35°28' E 139°48'8 8.1
2015-Jun-29 21:33N 35°32' E 139°57'8 7.6
2015-Jun-29 20:33N 35°33' E 140°06'0 0.5
2015-Jun-29 19:32N 35°33' E 140°07'0 0.0
2015-Jun-29 18:32N 35°33' E 140°07'0 0.0
2015-Jun-29 17:29N 35°33' E 140°07'0 0.0
2015-Jun-29 16:32N 35°33' E 140°07'0 0.0
2015-Jun-29 15:32N 35°33' E 140°07'0 0.0
2015-Jun-29 14:32N 35°33' E 140°07'0 0.0
2015-Jun-29 13:29N 35°33' E 140°07'0 0.0
2015-Jun-29 12:29N 35°33' E 140°07'3 3.2
2015-Jun-29 11:33N 35°34' E 140°03'8 7.6
2015-Jun-29 10:33N 35°30' E 139°55'10 9.7
2015-Jun-29 09:33N 35°25' E 139°45'6 5.3
2015-Jun-29 08:31N 35°23' E 139°38'0 0.0
2015-Jun-29 07:31N 35°23' E 139°38'0 0.0
2015-Jun-29 06:31N 35°23' E 139°38'4 3.8
2015-Jun-29 05:33N 35°24' E 139°43'1 0.5
2015-Jun-29 04:28N 35°23' E 139°44'0 0.0
2015-Jun-29 03:31N 35°23' E 139°44'0 0.1
2015-Jun-29 02:31N 35°23' E 139°44'0 0.0
2015-Jun-29 01:31N 35°23' E 139°44'0 0.1
2015-Jun-29 00:31N 35°23' E 139°44'0 0.0
2015-Jun-28 23:31N 35°23' E 139°44'2 1.8
2015-Jun-28 22:33N 35°22' E 139°43'8 8.4
2015-Jun-28 21:33N 35°14' E 139°47'9 9.0
2015-Jun-28 20:33N 35°06' E 139°42'  

Dump ship's entire track history